sensor_id;sensor_type;location;lat;lon;timestamp;pressure;altitude;pressure_sealevel;temperature;humidity
70902;BME280;58548;47.210;8.618;2023-02-28T00:01:22;94226.13;;;7.81;33.98
70902;BME280;58548;47.210;8.618;2023-02-28T00:03:51;94185.53;;;7.63;33.90
70902;BME280;58548;47.210;8.618;2023-02-28T00:06:17;94113.00;;;7.14;34.10
70902;BME280;58548;47.210;8.618;2023-02-28T00:08:43;94090.66;;;6.96;33.97
70902;BME280;58548;47.210;8.618;2023-02-28T00:11:14;94241.34;;;7.92;33.91
70902;BME280;58548;47.210;8.618;2023-02-28T00:13:43;94220.28;;;7.79;33.98
70902;BME280;58548;47.210;8.618;2023-02-28T00:16:18;94118.34;;;7.12;33.77
70902;BME280;58548;47.210;8.618;2023-02-28T00:18:47;94219.16;;;7.73;33.89
70902;BME280;58548;47.210;8.618;2023-02-28T00:21:18;94122.41;;;7.15;33.99
70902;BME280;58548;47.210;8.618;2023-02-28T00:23:45;94107.69;;;6.99;33.84
70902;BME280;58548;47.210;8.618;2023-02-28T00:26:11;94231.59;;;7.94;33.77
70902;BME280;58548;47.210;8.618;2023-02-28T00:28:42;94112.81;;;7.23;33.69
70902;BME280;58548;47.210;8.618;2023-02-28T00:31:08;94236.25;;;7.99;33.79
70902;BME280;58548;47.210;8.618;2023-02-28T00:33:34;94207.88;;;7.89;33.52
70902;BME280;58548;47.210;8.618;2023-02-28T00:36:05;94114.25;;;7.26;33.49
70902;BME280;58548;47.210;8.618;2023-02-28T00:38:32;94215.34;;;7.84;34.02
70902;BME280;58548;47.210;8.618;2023-02-28T00:40:58;94234.19;;;7.94;34.16
70902;BME280;58548;47.210;8.618;2023-02-28T00:43:24;94231.59;;;7.94;34.00
70902;BME280;58548;47.210;8.618;2023-02-28T00:45:50;94231.59;;;7.94;33.86
70902;BME280;58548;47.210;8.618;2023-02-28T00:48:18;94227.38;;;7.85;34.06
70902;BME280;58548;47.210;8.618;2023-02-28T00:50:44;94126.44;;;7.17;33.80
70902;BME280;58548;47.210;8.618;2023-02-28T00:53:12;94240.09;;;7.80;33.87
70902;BME280;58548;47.210;8.618;2023-02-28T00:55:38;94034.81;;;6.36;34.38
70902;BME280;58548;47.210;8.618;2023-02-28T00:58:06;94213.22;;;7.56;33.91
70902;BME280;58548;47.210;8.618;2023-02-28T01:00:32;94127.97;;;6.95;34.21
70902;BME280;58548;47.210;8.618;2023-02-28T01:02:58;94238.16;;;7.74;34.39
70902;BME280;58548;47.210;8.618;2023-02-28T01:05:26;94186.63;;;7.37;34.30
70902;BME280;58548;47.210;8.618;2023-02-28T01:07:54;94230.19;;;7.75;33.97
70902;BME280;58548;47.210;8.618;2023-02-28T01:10:22;94207.84;;;7.58;34.21
70902;BME280;58548;47.210;8.618;2023-02-28T01:12:48;94220.09;;;7.80;34.37
70902;BME280;58548;47.210;8.618;2023-02-28T01:15:17;94232.88;;;7.90;34.37
70902;BME280;58548;47.210;8.618;2023-02-28T01:17:45;94228.53;;;7.82;33.97
70902;BME280;58548;47.210;8.618;2023-02-28T01:20:14;94218.66;;;7.78;33.90
70902;BME280;58548;47.210;8.618;2023-02-28T01:22:42;94231.28;;;7.89;34.04
70902;BME280;58548;47.210;8.618;2023-02-28T01:25:08;94178.78;;;7.54;34.41
70902;BME280;58548;47.210;8.618;2023-02-28T01:27:36;94128.53;;;7.30;33.83
70902;BME280;58548;47.210;8.618;2023-02-28T01:30:02;94228.78;;;7.96;33.79
70902;BME280;58548;47.210;8.618;2023-02-28T01:32:28;94234.50;;;7.99;33.75
70902;BME280;58548;47.210;8.618;2023-02-28T01:34:54;94227.69;;;7.90;33.70
70902;BME280;58548;47.210;8.618;2023-02-28T01:37:22;94172.41;;;7.57;33.79
70902;BME280;58548;47.210;8.618;2023-02-28T01:39:50;94166.13;;;7.43;34.15
70902;BME280;58548;47.210;8.618;2023-02-28T01:42:16;94239.59;;;7.84;33.88
70902;BME280;58548;47.210;8.618;2023-02-28T01:45:17;94125.78;;;7.23;34.33
70902;BME280;58548;47.210;8.618;2023-02-28T01:47:50;94212.16;;;7.82;34.25
70902;BME280;58548;47.210;8.618;2023-02-28T01:50:21;94116.69;;;7.28;34.28
70902;BME280;58548;47.210;8.618;2023-02-28T01:52:53;94217.13;;;7.92;34.04
70902;BME280;58548;47.210;8.618;2023-02-28T01:55:22;94229.28;;;7.99;33.79
70902;BME280;58548;47.210;8.618;2023-02-28T01:57:56;94228.59;;;8.06;33.71
70902;BME280;58548;47.210;8.618;2023-02-28T02:00:25;94227.16;;;8.03;33.59
70902;BME280;58548;47.210;8.618;2023-02-28T02:03:11;94104.19;;;7.23;33.89
70902;BME280;58548;47.210;8.618;2023-02-28T02:05:42;94117.78;;;7.33;34.15
70902;BME280;58548;47.210;8.618;2023-02-28T02:08:28;94211.75;;;7.93;33.81
70902;BME280;58548;47.210;8.618;2023-02-28T02:11:00;94220.53;;;7.92;33.90
70902;BME280;58548;47.210;8.618;2023-02-28T02:28:11;94198.41;;;7.96;34.07
70902;BME280;58548;47.210;8.618;2023-02-28T02:36:30;94196.47;;;7.98;34.09
70902;BME280;58548;47.210;8.618;2023-02-28T02:41:50;94084.59;;;7.44;33.63
70902;BME280;58548;47.210;8.618;2023-02-28T02:44:27;94089.47;;;7.47;33.64
70902;BME280;58548;47.210;8.618;2023-02-28T02:47:07;94181.78;;;8.06;33.70
70902;BME280;58548;47.210;8.618;2023-02-28T02:49:38;94206.47;;;8.10;33.42
70902;BME280;58548;47.210;8.618;2023-02-28T02:52:10;94178.72;;;8.02;34.04
70902;BME280;58548;47.210;8.618;2023-02-28T02:54:42;94071.38;;;7.30;33.81
70902;BME280;58548;47.210;8.618;2023-02-28T02:57:38;94198.31;;;8.13;33.59
70902;BME280;58548;47.210;8.618;2023-02-28T03:00:06;94096.63;;;7.45;33.94
70902;BME280;58548;47.210;8.618;2023-02-28T03:02:36;94083.56;;;7.30;34.25
70902;BME280;58548;47.210;8.618;2023-02-28T03:05:41;94192.78;;;8.16;33.91
70902;BME280;58548;47.210;8.618;2023-02-28T03:08:12;94106.34;;;7.51;33.77
70902;BME280;58548;47.210;8.618;2023-02-28T03:10:46;94199.63;;;8.09;33.93
70902;BME280;58548;47.210;8.618;2023-02-28T03:27:21;94092.34;;;7.20;34.37
70902;BME280;58548;47.210;8.618;2023-02-28T03:32:45;94095.91;;;7.28;34.37
70902;BME280;58548;47.210;8.618;2023-02-28T03:35:23;94130.72;;;7.50;34.21
70902;BME280;58548;47.210;8.618;2023-02-28T03:38:07;94148.53;;;7.61;34.41
70902;BME280;58548;47.210;8.618;2023-02-28T03:40:46;94182.56;;;7.83;34.53
70902;BME280;58548;47.210;8.618;2023-02-28T03:43:20;94199.91;;;7.91;34.20
70902;BME280;58548;47.210;8.618;2023-02-28T03:45:50;94167.31;;;7.80;34.27
70902;BME280;58548;47.210;8.618;2023-02-28T03:48:34;94170.78;;;7.95;33.69
70902;BME280;58548;47.210;8.618;2023-02-28T03:51:06;94200.50;;;8.01;34.28
70902;BME280;58548;47.210;8.618;2023-02-28T03:53:42;94165.94;;;7.92;34.06
70902;BME280;58548;47.210;8.618;2023-02-28T03:56:37;94197.38;;;8.06;34.12
70902;BME280;58548;47.210;8.618;2023-02-28T03:59:25;94092.47;;;7.27;34.19
70902;BME280;58548;47.210;8.618;2023-02-28T04:01:52;94179.53;;;7.71;34.41
70902;BME280;58548;47.210;8.618;2023-02-28T04:04:18;94201.38;;;7.85;34.13
70902;BME280;58548;47.210;8.618;2023-02-28T04:06:45;94207.84;;;7.97;34.14
70902;BME280;58548;47.210;8.618;2023-02-28T04:09:14;94187.88;;;7.90;33.87
70902;BME280;58548;47.210;8.618;2023-02-28T04:11:51;94203.31;;;7.91;33.96
70902;BME280;58548;47.210;8.618;2023-02-28T04:14:20;94082.34;;;7.09;34.02
70902;BME280;58548;47.210;8.618;2023-02-28T04:16:46;94212.38;;;8.04;33.98
70902;BME280;58548;47.210;8.618;2023-02-28T04:19:15;94066.59;;;7.11;33.60
70902;BME280;58548;47.210;8.618;2023-02-28T04:21:44;94187.13;;;7.81;33.60
70902;BME280;58548;47.210;8.618;2023-02-28T04:24:13;94088.31;;;7.18;33.67
70902;BME280;58548;47.210;8.618;2023-02-28T04:26:45;94216.75;;;8.03;34.01
70902;BME280;58548;47.210;8.618;2023-02-28T04:29:21;94145.72;;;7.39;34.08
70902;BME280;58548;47.210;8.618;2023-02-28T04:31:47;94111.69;;;7.18;33.63
70902;BME280;58548;47.210;8.618;2023-02-28T04:34:13;94237.31;;;7.81;34.13
70902;BME280;58548;47.210;8.618;2023-02-28T04:36:42;94215.22;;;7.77;33.96
70902;BME280;58548;47.210;8.618;2023-02-28T04:39:08;94198.41;;;7.65;34.27
70902;BME280;58548;47.210;8.618;2023-02-28T04:41:37;94220.91;;;7.81;34.05
70902;BME280;58548;47.210;8.618;2023-02-28T04:44:03;94224.50;;;7.80;34.18
70902;BME280;58548;47.210;8.618;2023-02-28T04:46:29;94181.00;;;7.65;33.69
70902;BME280;58548;47.210;8.618;2023-02-28T04:48:56;94228.53;;;7.82;34.05
70902;BME280;58548;47.210;8.618;2023-02-28T04:51:22;94172.63;;;7.47;33.75
70902;BME280;58548;47.210;8.618;2023-02-28T04:53:50;94102.94;;;7.02;33.70
70902;BME280;58548;47.210;8.618;2023-02-28T04:56:19;94205.03;;;7.67;33.85
70902;BME280;58548;47.210;8.618;2023-02-28T04:58:46;94219.00;;;7.66;33.99
70902;BME280;58548;47.210;8.618;2023-02-28T05:01:27;94238.16;;;7.74;34.18
70902;BME280;58548;47.210;8.618;2023-02-28T05:03:56;94245.28;;;7.80;33.69
70902;BME280;58548;47.210;8.618;2023-02-28T05:06:24;94229.41;;;7.66;34.32
70902;BME280;58548;47.210;8.618;2023-02-28T05:08:51;94253.38;;;7.85;34.11
70902;BME280;58548;47.210;8.618;2023-02-28T05:11:24;94249.81;;;7.86;33.74
70902;BME280;58548;47.210;8.618;2023-02-28T05:13:52;94226.13;;;7.73;33.59
70902;BME280;58548;47.210;8.618;2023-02-28T05:16:19;94221.13;;;7.71;33.93
70902;BME280;58548;47.210;8.618;2023-02-28T05:18:46;94171.50;;;7.49;33.28
70902;BME280;58548;47.210;8.618;2023-02-28T05:23:54;94255.16;;;7.93;33.51
70902;BME280;58548;47.210;8.618;2023-02-28T05:26:23;94151.28;;;7.20;33.75
70902;BME280;58548;47.210;8.618;2023-02-28T05:28:49;94231.34;;;7.73;33.78
70902;BME280;58548;47.210;8.618;2023-02-28T05:31:18;94249.22;;;7.76;34.01
70902;BME280;58548;47.210;8.618;2023-02-28T05:33:44;94179.63;;;7.38;33.53
70902;BME280;58548;47.210;8.618;2023-02-28T05:36:10;94237.19;;;7.75;33.44
70902;BME280;58548;47.210;8.618;2023-02-28T05:38:39;94131.84;;;7.07;33.58
70902;BME280;58548;47.210;8.618;2023-02-28T05:41:09;94252.06;;;7.89;33.58
70902;BME280;58548;47.210;8.618;2023-02-28T05:43:38;94256.63;;;7.87;33.48
70902;BME280;58548;47.210;8.618;2023-02-28T05:46:09;94146.06;;;7.28;33.60
70902;BME280;58548;47.210;8.618;2023-02-28T05:48:37;94249.75;;;8.03;33.32
70902;BME280;58548;47.210;8.618;2023-02-28T05:51:09;94154.00;;;7.35;33.93
70902;BME280;58548;47.210;8.618;2023-02-28T05:53:40;94131.81;;;7.16;33.46
70902;BME280;58548;47.210;8.618;2023-02-28T05:56:08;94260.38;;;7.93;33.71
70902;BME280;58548;47.210;8.618;2023-02-28T05:58:34;94268.94;;;8.02;33.42
70902;BME280;58548;47.210;8.618;2023-02-28T06:01:31;94205.69;;;7.69;33.91
70902;BME280;58548;47.210;8.618;2023-02-28T06:03:58;94146.06;;;7.28;33.23
70902;BME280;58548;47.210;8.618;2023-02-28T06:06:29;94255.13;;;8.01;33.69
70902;BME280;58548;47.210;8.618;2023-02-28T06:08:58;94253.34;;;8.02;33.58
70902;BME280;58548;47.210;8.618;2023-02-28T06:11:24;94151.56;;;7.33;33.33
70902;BME280;58548;47.210;8.618;2023-02-28T06:13:57;94263.13;;;7.91;33.49
70902;BME280;58548;47.210;8.618;2023-02-28T06:16:28;94150.28;;;7.21;33.52
70902;BME280;58548;47.210;8.618;2023-02-28T06:18:58;94242.72;;;7.72;33.86
70902;BME280;58548;47.210;8.618;2023-02-28T06:21:26;94168.66;;;7.19;33.56
70902;BME280;58548;47.210;8.618;2023-02-28T06:23:53;94266.56;;;7.83;33.69
70902;BME280;58548;47.210;8.618;2023-02-28T06:26:22;94274.16;;;7.93;33.45
70902;BME280;58548;47.210;8.618;2023-02-28T06:28:52;94260.56;;;7.83;33.74
70902;BME280;58548;47.210;8.618;2023-02-28T06:31:19;94286.81;;;8.05;33.98
70902;BME280;58548;47.210;8.618;2023-02-28T06:33:48;94299.81;;;8.05;33.94
70902;BME280;58548;47.210;8.618;2023-02-28T06:36:16;94082.41;;;6.76;33.36
70902;BME280;58548;47.210;8.618;2023-02-28T06:38:47;94299.78;;;8.13;33.47
70902;BME280;58548;47.210;8.618;2023-02-28T06:41:17;94256.97;;;7.84;33.75
70902;BME280;58548;47.210;8.618;2023-02-28T06:43:46;94298.13;;;8.20;33.03
70902;BME280;58548;47.210;8.618;2023-02-28T06:46:15;94316.97;;;8.22;33.33
70902;BME280;58548;47.210;8.618;2023-02-28T06:48:46;94284.56;;;8.02;33.54
70902;BME280;58548;47.210;8.618;2023-02-28T06:51:17;94219.06;;;7.58;33.36
70902;BME280;58548;47.210;8.618;2023-02-28T06:53:48;94314.38;;;8.22;33.63
70902;BME280;58548;47.210;8.618;2023-02-28T06:56:16;94322.84;;;8.16;33.22
70902;BME280;58548;47.210;8.618;2023-02-28T06:58:46;94289.13;;;7.91;32.95
70902;BME280;58548;47.210;8.618;2023-02-28T07:01:15;94290.59;;;7.85;33.14
70902;BME280;58548;47.210;8.618;2023-02-28T07:03:43;94226.06;;;7.41;33.77
70902;BME280;58548;47.210;8.618;2023-02-28T07:06:10;94319.47;;;8.07;33.51
70902;BME280;58548;47.210;8.618;2023-02-28T07:08:36;94329.06;;;8.07;33.72
70902;BME280;58548;47.210;8.618;2023-02-28T07:11:03;94287.81;;;7.87;33.57
70902;BME280;58548;47.210;8.618;2023-02-28T07:13:29;94321.56;;;8.12;33.98
70902;BME280;58548;47.210;8.618;2023-02-28T07:15:56;94325.75;;;8.21;33.73
70902;BME280;58548;47.210;8.618;2023-02-28T07:18:24;94323.44;;;8.26;33.08
70902;BME280;58548;47.210;8.618;2023-02-28T07:20:50;94219.84;;;7.67;32.70
70902;BME280;58548;47.210;8.618;2023-02-28T07:23:19;94328.66;;;8.26;33.00
70902;BME280;58548;47.210;8.618;2023-02-28T07:25:47;94322.66;;;8.26;33.08
70902;BME280;58548;47.210;8.618;2023-02-28T07:28:13;94324.28;;;8.27;33.15
70902;BME280;58548;47.210;8.618;2023-02-28T07:30:42;94208.00;;;7.56;33.05
70902;BME280;58548;47.210;8.618;2023-02-28T07:33:08;94231.03;;;7.67;33.04
70902;BME280;58548;47.210;8.618;2023-02-28T07:35:37;94294.56;;;8.13;32.94
70902;BME280;58548;47.210;8.618;2023-02-28T07:38:03;94205.44;;;7.48;33.50
70902;BME280;58548;47.210;8.618;2023-02-28T07:40:30;94333.38;;;8.23;33.10
70902;BME280;58548;47.210;8.618;2023-02-28T07:42:59;94306.63;;;8.06;33.50
70902;BME280;58548;47.210;8.618;2023-02-28T07:45:28;94309.00;;;8.24;33.46
70902;BME280;58548;47.210;8.618;2023-02-28T07:48:00;94299.06;;;8.27;32.65
70902;BME280;58548;47.210;8.618;2023-02-28T07:50:27;94300.97;;;8.34;33.07
70902;BME280;58548;47.210;8.618;2023-02-28T07:52:58;94321.13;;;8.40;32.73
70902;BME280;58548;47.210;8.618;2023-02-28T07:55:27;94310.53;;;8.41;32.50
70902;BME280;58548;47.210;8.618;2023-02-28T07:57:56;94279.84;;;8.28;32.75
70902;BME280;58548;47.210;8.618;2023-02-28T08:00:27;94243.84;;;8.09;32.89
70902;BME280;58548;47.210;8.618;2023-02-28T08:02:54;94331.22;;;8.74;32.86
70902;BME280;58548;47.210;8.618;2023-02-28T08:05:23;94227.56;;;8.15;32.53
70902;BME280;58548;47.210;8.618;2023-02-28T08:07:49;94322.56;;;8.82;32.14
70902;BME280;58548;47.210;8.618;2023-02-28T08:10:15;94197.75;;;8.03;31.90
70902;BME280;58548;47.210;8.618;2023-02-28T08:12:41;94288.06;;;8.57;32.00
70902;BME280;58548;47.210;8.618;2023-02-28T08:15:08;94321.38;;;8.85;32.14
70902;BME280;58548;47.210;8.618;2023-02-28T08:17:36;94229.59;;;8.05;32.24
70902;BME280;58548;47.210;8.618;2023-02-28T08:20:04;94332.03;;;8.75;32.43
70902;BME280;58548;47.210;8.618;2023-02-28T08:22:32;94333.91;;;8.89;32.54
70902;BME280;58548;47.210;8.618;2023-02-28T08:25:00;94345.59;;;8.94;31.88
70902;BME280;58548;47.210;8.618;2023-02-28T08:27:29;94225.75;;;8.24;32.27
70902;BME280;58548;47.210;8.618;2023-02-28T08:29:57;94240.59;;;8.38;31.97
70902;BME280;58548;47.210;8.618;2023-02-28T08:32:23;94311.09;;;8.68;31.93
70902;BME280;58548;47.210;8.618;2023-02-28T08:34:49;94240.03;;;8.28;31.94
70902;BME280;58548;47.210;8.618;2023-02-28T08:37:17;94337.34;;;8.82;32.50
70902;BME280;58548;47.210;8.618;2023-02-28T08:39:45;94237.41;;;8.05;31.83
70902;BME280;58548;47.210;8.618;2023-02-28T08:42:14;94348.00;;;8.72;32.19
70902;BME280;58548;47.210;8.618;2023-02-28T08:44:40;94341.44;;;8.84;32.46
70902;BME280;58548;47.210;8.618;2023-02-28T08:47:08;94219.47;;;8.10;32.37
70902;BME280;58548;47.210;8.618;2023-02-28T08:49:37;94320.84;;;8.66;31.86
70902;BME280;58548;47.210;8.618;2023-02-28T08:52:05;94354.88;;;8.96;32.05
70902;BME280;58548;47.210;8.618;2023-02-28T08:54:35;94323.28;;;8.99;31.57
70902;BME280;58548;47.210;8.618;2023-02-28T08:57:06;94322.31;;;9.15;31.12
70902;BME280;58548;47.210;8.618;2023-02-28T08:59:34;94306.13;;;9.05;31.13
70902;BME280;58548;47.210;8.618;2023-02-28T09:02:00;94145.09;;;8.00;31.28
70902;BME280;58548;47.210;8.618;2023-02-28T09:04:29;94319.66;;;9.00;31.75
70902;BME280;58548;47.210;8.618;2023-02-28T09:06:57;94343.75;;;9.26;31.47
70902;BME280;58548;47.210;8.618;2023-02-28T09:09:23;94247.66;;;8.84;31.17
70902;BME280;58548;47.210;8.618;2023-02-28T09:11:49;94236.78;;;8.81;30.84
70902;BME280;58548;47.210;8.618;2023-02-28T09:14:18;94348.13;;;9.48;31.31
70902;BME280;58548;47.210;8.618;2023-02-28T09:16:49;94334.75;;;9.52;31.24
70902;BME280;58548;47.210;8.618;2023-02-28T09:19:15;94232.19;;;9.06;30.68
70902;BME280;58548;47.210;8.618;2023-02-28T09:21:41;94324.41;;;9.58;30.51
70902;BME280;58548;47.210;8.618;2023-02-28T09:24:09;94346.94;;;9.74;31.00
70902;BME280;58548;47.210;8.618;2023-02-28T09:26:37;94352.53;;;9.48;30.56
70902;BME280;58548;47.210;8.618;2023-02-28T09:29:08;94359.59;;;9.62;30.58
70902;BME280;58548;47.210;8.618;2023-02-28T09:31:34;94354.38;;;9.62;30.36
70902;BME280;58548;47.210;8.618;2023-02-28T09:34:00;94366.16;;;9.73;29.97
70902;BME280;58548;47.210;8.618;2023-02-28T09:36:28;94373.06;;;9.66;30.39
70902;BME280;58548;47.210;8.618;2023-02-28T09:38:55;94336.72;;;9.64;30.35
70902;BME280;58548;47.210;8.618;2023-02-28T09:41:37;94232.59;;;8.95;30.83
70902;BME280;58548;47.210;8.618;2023-02-28T09:44:15;94251.47;;;8.97;30.56
70902;BME280;58548;47.210;8.618;2023-02-28T09:46:49;94348.97;;;9.64;30.20
70902;BME280;58548;47.210;8.618;2023-02-28T09:49:27;94296.41;;;9.37;30.68
70902;BME280;58548;47.210;8.618;2023-02-28T09:52:12;94382.00;;;9.87;30.15
70902;BME280;58548;47.210;8.618;2023-02-28T09:54:44;94281.97;;;9.11;30.45
70902;BME280;58548;47.210;8.618;2023-02-28T09:57:30;94280.28;;;9.18;30.50
70902;BME280;58548;47.210;8.618;2023-02-28T10:00:24;94388.19;;;9.71;30.00
70902;BME280;58548;47.210;8.618;2023-02-28T10:06:12;94402.97;;;9.93;30.05
70902;BME280;58548;47.210;8.618;2023-02-28T10:08:51;94387.31;;;9.93;29.79
70902;BME280;58548;47.210;8.618;2023-02-28T10:11:20;94392.59;;;9.85;29.99
70902;BME280;58548;47.210;8.618;2023-02-28T10:19:28;94387.28;;;10.17;29.26
70902;BME280;58548;47.210;8.618;2023-02-28T10:22:14;94370.25;;;9.91;30.10
70902;BME280;58548;47.210;8.618;2023-02-28T10:24:51;94390.75;;;9.94;29.55
70902;BME280;58548;47.210;8.618;2023-02-28T10:27:23;94373.22;;;10.03;30.35
70902;BME280;58548;47.210;8.618;2023-02-28T10:29:56;94391.50;;;10.33;29.92
70902;BME280;58548;47.210;8.618;2023-02-28T10:32:26;94397.72;;;10.47;29.38
70902;BME280;58548;47.210;8.618;2023-02-28T10:35:20;94302.84;;;9.94;29.26
70902;BME280;58548;47.210;8.618;2023-02-28T10:37:51;94401.97;;;10.48;29.36
70902;BME280;58548;47.210;8.618;2023-02-28T10:43:04;94281.28;;;9.86;29.41
70902;BME280;58548;47.210;8.618;2023-02-28T10:45:33;94376.56;;;10.41;29.18
70902;BME280;58548;47.210;8.618;2023-02-28T10:50:37;94395.72;;;10.79;29.22
70902;BME280;58548;47.210;8.618;2023-02-28T10:55:43;94277.28;;;10.20;29.02
70902;BME280;58548;47.210;8.618;2023-02-28T10:58:25;94378.31;;;10.86;28.61
70902;BME280;58548;47.210;8.618;2023-02-28T11:00:54;94370.78;;;10.76;28.18
70902;BME280;58548;47.210;8.618;2023-02-28T11:03:38;94406.41;;;10.99;28.32
70902;BME280;58548;47.210;8.618;2023-02-28T11:06:07;94392.94;;;10.80;28.53
70902;BME280;58548;47.210;8.618;2023-02-28T11:08:46;94410.72;;;10.92;29.30
70902;BME280;58548;47.210;8.618;2023-02-28T11:11:14;94420.03;;;10.94;28.85
70902;BME280;58548;47.210;8.618;2023-02-28T11:13:40;94420.59;;;10.90;29.17
70902;BME280;58548;47.210;8.618;2023-02-28T11:16:12;94429.13;;;10.83;29.04
70902;BME280;58548;47.210;8.618;2023-02-28T11:18:54;94406.78;;;10.81;28.94
70902;BME280;58548;47.210;8.618;2023-02-28T11:21:36;94305.13;;;10.13;28.60
70902;BME280;58548;47.210;8.618;2023-02-28T11:24:16;94421.09;;;10.85;29.02
70902;BME280;58548;47.210;8.618;2023-02-28T11:26:50;94337.50;;;10.33;28.64
70902;BME280;58548;47.210;8.618;2023-02-28T11:29:36;94416.38;;;10.74;28.88
70902;BME280;58548;47.210;8.618;2023-02-28T11:32:24;94375.94;;;10.39;29.16
70902;BME280;58548;47.210;8.618;2023-02-28T11:37:29;94401.78;;;10.49;28.68
70902;BME280;58548;47.210;8.618;2023-02-28T11:39:56;94407.53;;;10.75;29.12
70902;BME280;58548;47.210;8.618;2023-02-28T11:43:08;94404.16;;;10.81;28.63
70902;BME280;58548;47.210;8.618;2023-02-28T11:45:54;94403.94;;;10.61;28.46
70902;BME280;58548;47.210;8.618;2023-02-28T11:51:34;94343.97;;;10.37;28.85
70902;BME280;58548;47.210;8.618;2023-02-28T11:57:00;94319.75;;;10.44;28.63
70902;BME280;58548;47.210;8.618;2023-02-28T12:05:57;94402.03;;;11.21;28.56
70902;BME280;58548;47.210;8.618;2023-02-28T12:08:26;94413.59;;;11.34;28.78
70902;BME280;58548;47.210;8.618;2023-02-28T12:26:49;94316.25;;;10.88;27.92
70902;BME280;58548;47.210;8.618;2023-02-28T12:29:29;94408.56;;;11.54;28.15
70902;BME280;58548;47.210;8.618;2023-02-28T12:34:39;94410.94;;;11.49;27.38
70902;BME280;58548;47.210;8.618;2023-02-28T12:37:16;94400.66;;;11.47;27.81
70902;BME280;58548;47.210;8.618;2023-02-28T12:39:51;94396.41;;;11.46;27.83
70902;BME280;58548;47.210;8.618;2023-02-28T12:42:30;94391.94;;;11.40;27.55
70902;BME280;58548;47.210;8.618;2023-02-28T12:45:08;94379.88;;;11.39;27.77
70902;BME280;58548;47.210;8.618;2023-02-28T12:47:38;94368.63;;;11.23;27.63
70902;BME280;58548;47.210;8.618;2023-02-28T12:50:09;94290.16;;;10.73;28.42
70902;BME280;58548;47.210;8.618;2023-02-28T12:52:58;94389.75;;;11.43;27.89
70902;BME280;58548;47.210;8.618;2023-02-28T12:55:41;94381.53;;;11.46;28.07
70902;BME280;58548;47.210;8.618;2023-02-28T13:09:32;94405.75;;;11.55;27.48
70902;BME280;58548;47.210;8.618;2023-02-28T13:11:59;94292.66;;;10.81;27.60
70902;BME280;58548;47.210;8.618;2023-02-28T13:17:21;94393.00;;;11.45;27.44
70902;BME280;58548;47.210;8.618;2023-02-28T13:22:40;94309.84;;;10.91;28.33
70902;BME280;58548;47.210;8.618;2023-02-28T13:28:07;94306.16;;;10.85;28.28
70902;BME280;58548;47.210;8.618;2023-02-28T13:44:22;94400.75;;;10.95;27.98
70902;BME280;58548;47.210;8.618;2023-02-28T13:49:28;94398.75;;;10.97;28.77
70902;BME280;58548;47.210;8.618;2023-02-28T14:05:43;94382.28;;;10.82;28.77
70902;BME280;58548;47.210;8.618;2023-02-28T14:08:21;94394.81;;;10.86;28.60
70902;BME280;58548;47.210;8.618;2023-02-28T14:11:05;94425.06;;;10.96;28.88
70902;BME280;58548;47.210;8.618;2023-02-28T14:13:48;94407.59;;;10.96;28.66
70902;BME280;58548;47.210;8.618;2023-02-28T14:16:17;94391.97;;;11.03;28.59
70902;BME280;58548;47.210;8.618;2023-02-28T14:19:15;94404.19;;;11.18;28.11
70902;BME280;58548;47.210;8.618;2023-02-28T14:37:54;94319.94;;;10.27;28.80
70902;BME280;58548;47.210;8.618;2023-02-28T14:40:30;94432.53;;;10.99;29.12
70902;BME280;58548;47.210;8.618;2023-02-28T14:43:04;94433.34;;;10.99;28.58
70902;BME280;58548;47.210;8.618;2023-02-28T14:45:37;94321.66;;;10.20;28.71
70902;BME280;58548;47.210;8.618;2023-02-28T14:48:09;94440.09;;;10.94;28.86
70902;BME280;58548;47.210;8.618;2023-02-28T14:50:39;94414.63;;;10.81;29.10
70902;BME280;58548;47.210;8.618;2023-02-28T14:53:17;94430.03;;;10.91;28.70
70902;BME280;58548;47.210;8.618;2023-02-28T14:55:49;94437.31;;;10.95;29.15
70902;BME280;58548;47.210;8.618;2023-02-28T14:58:28;94386.47;;;10.61;28.36
70902;BME280;58548;47.210;8.618;2023-02-28T15:01:00;94335.31;;;10.22;29.12
70902;BME280;58548;47.210;8.618;2023-02-28T15:06:06;94443.19;;;10.67;28.61
70902;BME280;58548;47.210;8.618;2023-02-28T15:08:35;94409.09;;;10.54;29.10
70902;BME280;58548;47.210;8.618;2023-02-28T15:11:13;94441.22;;;10.69;28.97
70902;BME280;58548;47.210;8.618;2023-02-28T15:13:48;94448.69;;;10.73;29.15
70902;BME280;58548;47.210;8.618;2023-02-28T15:18:57;94441.69;;;10.58;29.24
70902;BME280;58548;47.210;8.618;2023-02-28T15:21:25;94446.63;;;10.53;29.15
70902;BME280;58548;47.210;8.618;2023-02-28T15:24:18;94347.47;;;9.85;29.17
70902;BME280;58548;47.210;8.618;2023-02-28T15:27:03;94440.78;;;10.51;29.08
70902;BME280;58548;47.210;8.618;2023-02-28T15:29:41;94346.75;;;9.91;29.45
70902;BME280;58548;47.210;8.618;2023-02-28T15:34:52;94453.16;;;10.34;29.88
70902;BME280;58548;47.210;8.618;2023-02-28T15:37:44;94455.03;;;10.25;29.71
70902;BME280;58548;47.210;8.618;2023-02-28T15:40:22;94461.47;;;9.99;30.23
70902;BME280;58548;47.210;8.618;2023-02-28T15:43:15;94451.50;;;10.18;29.88
70902;BME280;58548;47.210;8.618;2023-02-28T15:48:19;94455.47;;;10.14;30.14
70902;BME280;58548;47.210;8.618;2023-02-28T15:51:04;94464.31;;;10.13;30.13
70902;BME280;58548;47.210;8.618;2023-02-28T15:53:37;94359.94;;;9.36;29.86
70902;BME280;58548;47.210;8.618;2023-02-28T15:56:22;94406.38;;;9.56;29.93
70902;BME280;58548;47.210;8.618;2023-02-28T15:58:49;94461.81;;;9.96;29.92
70902;BME280;58548;47.210;8.618;2023-02-28T16:03:57;94476.16;;;9.77;30.03
70902;BME280;58548;47.210;8.618;2023-02-28T16:09:00;94444.63;;;9.40;30.62
70902;BME280;58548;47.210;8.618;2023-02-28T16:11:26;94357.28;;;8.98;30.48
70902;BME280;58548;47.210;8.618;2023-02-28T16:13:52;94468.72;;;9.65;30.43
70902;BME280;58548;47.210;8.618;2023-02-28T16:16:24;94472.81;;;9.68;31.06
70902;BME280;58548;47.210;8.618;2023-02-28T16:18:53;94470.50;;;9.73;30.90
70902;BME280;58548;47.210;8.618;2023-02-28T16:21:19;94391.34;;;9.19;30.56
70902;BME280;58548;47.210;8.618;2023-02-28T16:23:45;94382.44;;;9.14;31.14
70902;BME280;58548;47.210;8.618;2023-02-28T16:26:38;94471.53;;;9.64;31.33